»·PEaware :: N716TH KSBP-KSBP

N716TH :: KSBP-KSBP

FLIGHT INFORMATION

Flight Status: Arrived
Operator: Privately registered:
United States
More flights under this callsign
Pilot: Danny R. (17997)
Aircraft: CESSNA 172 SKYHAWK
(C172)
More flights by this aircraft type
Origin: KSBP San Luis Co Regl
United States
Destination: KSBP San Luis Co Regl
United States
More flights between these airports :: More routes between these airports
Route:
File this flight plan on PilotEdge
Remarks: CAT 3
Altitude:
(Current/Filed)
0ft
Speed:
(Current/Filed)
100kts
Departed: 04-Feb-18 12:28 PM
Arrived: 04-Feb-18 12:58 PM
Distance/Time
Traveled:
0nm/0:30
Distance/Time
To Go:
Arrived

Flight Plot

Page will automatically refresh every two minutes.


Map Options




Map Legend


Flown Route
Filed Route
Departure Airport
Arrival Airport
Navaid (VOR, NDB)
Fix

Horizontal Profiles

Position Reports

Time Latitude Longitude Heading Altitude Ground
Speed
04-Feb-18 11:48 35.235491 -120.635983 17 215ft 6kts
04-Feb-18 11:48 35.237436 -120.638382 55 215ft 10kts
04-Feb-18 11:49 35.237804 -120.638065 270 215ft 0kts
04-Feb-18 11:50 35.237804 -120.638065 270 215ft 0kts
04-Feb-18 11:51 35.237804 -120.638065 270 215ft 0kts
04-Feb-18 11:52 35.237804 -120.638065 270 215ft 0kts
04-Feb-18 11:53 35.237804 -120.638065 270 215ft 0kts
04-Feb-18 11:54 35.237804 -120.638065 270 215ft 0kts
04-Feb-18 11:55 35.237804 -120.638065 270 215ft 0kts
04-Feb-18 11:56 35.237804 -120.638065 270 215ft 0kts
04-Feb-18 11:57 35.237804 -120.638065 270 215ft 0kts
04-Feb-18 11:58 35.237804 -120.638065 270 215ft 0kts
04-Feb-18 11:59 35.237804 -120.638065 270 215ft 0kts
04-Feb-18 12:00 35.237804 -120.638065 270 215ft 0kts
04-Feb-18 12:01 35.237804 -120.638065 270 215ft 0kts
04-Feb-18 12:02 35.237804 -120.638065 270 215ft 0kts
04-Feb-18 12:03 35.237804 -120.638065 270 215ft 0kts
04-Feb-18 12:04 35.237804 -120.638065 270 215ft 0kts
04-Feb-18 12:05 35.237804 -120.638065 270 215ft 0kts
04-Feb-18 12:06 35.237804 -120.638065 270 215ft 0kts
04-Feb-18 12:07 35.237804 -120.638065 270 215ft 0kts
04-Feb-18 12:08 35.237804 -120.638065 270 215ft 0kts
04-Feb-18 12:09 35.237804 -120.638065 270 215ft 0kts
04-Feb-18 12:10 35.237804 -120.638065 270 215ft 0kts
04-Feb-18 12:11 35.237804 -120.638065 270 215ft 0kts
04-Feb-18 12:12 35.237804 -120.638065 270 215ft 0kts
04-Feb-18 12:13 35.237804 -120.638065 270 215ft 0kts
04-Feb-18 12:14 35.237804 -120.638065 270 215ft 0kts
04-Feb-18 12:15 35.237804 -120.638065 270 215ft 0kts
04-Feb-18 12:16 35.237804 -120.638065 270 215ft 0kts
04-Feb-18 12:17 35.237804 -120.638065 270 215ft 0kts
04-Feb-18 12:18 35.237804 -120.638065 270 215ft 0kts
04-Feb-18 12:19 35.237804 -120.638065 270 215ft 0kts
04-Feb-18 12:20 35.237804 -120.638065 270 215ft 0kts
04-Feb-18 12:21 35.237804 -120.638065 270 215ft 0kts
04-Feb-18 12:22 35.237804 -120.638065 270 215ft 0kts
04-Feb-18 12:23 35.237804 -120.638065 270 215ft 0kts
04-Feb-18 12:24 35.237804 -120.638065 270 215ft 0kts
04-Feb-18 12:25 35.237804 -120.638065 270 215ft 0kts
04-Feb-18 12:26 35.237804 -120.638065 270 215ft 0kts
04-Feb-18 12:27 35.237804 -120.638065 270 215ft 0kts
04-Feb-18 12:28 35.235991 -120.636513 124 215ft 21kts
04-Feb-18 12:29 35.233480 -120.631986 142 215ft 8kts
04-Feb-18 12:30 35.233354 -120.631982 220 215ft 0kts
04-Feb-18 12:31 35.233354 -120.631982 220 215ft 0kts
04-Feb-18 12:32 35.233246 -120.632247 218 215ft 0kts
04-Feb-18 12:33 35.232870 -120.632680 258 215ft 12kts
04-Feb-18 12:34 35.242281 -120.649508 306 656ft 83kts
04-Feb-18 12:35 35.243360 -120.671165 209 1288ft 85kts
04-Feb-18 12:36 35.224043 -120.674656 123 1244ft 72kts
04-Feb-18 12:37 35.213377 -120.654688 123 1118ft 66kts
04-Feb-18 12:38 35.203089 -120.634547 120 1270ft 71kts
04-Feb-18 12:39 35.209331 -120.616426 31 1064ft 66kts
04-Feb-18 12:40 35.222970 -120.614810 303 730ft 59kts
04-Feb-18 12:41 35.232827 -120.632866 303 253ft 64kts
04-Feb-18 12:42 35.244424 -120.653164 304 481ft 90kts
04-Feb-18 12:43 35.238490 -120.673689 206 1110ft 88kts
04-Feb-18 12:44 35.220198 -120.664790 122 1186ft 87kts
04-Feb-18 12:45 35.208671 -120.644628 123 1158ft 71kts
04-Feb-18 12:46 35.199823 -120.623276 66 1121ft 69kts
04-Feb-18 12:47 35.214669 -120.610679 26 876ft 60kts
04-Feb-18 12:48 35.226896 -120.622014 301 581ft 61kts
04-Feb-18 12:49 35.235703 -120.637936 303 215ft 53kts
04-Feb-18 12:50 35.247004 -120.660033 262 712ft 79kts
04-Feb-18 12:51 35.229840 -120.675864 190 1130ft 79kts
04-Feb-18 12:52 35.216680 -120.655964 119 1243ft 80kts
04-Feb-18 12:53 35.204113 -120.633301 123 1318ft 80kts
04-Feb-18 12:54 35.209471 -120.615360 28 1027ft 73kts
04-Feb-18 12:55 35.224485 -120.617863 304 675ft 63kts
04-Feb-18 12:56 35.234225 -120.635320 304 215ft 53kts
04-Feb-18 12:57 35.245285 -120.655067 304 571ft 86kts
04-Feb-18 12:58 35.233774 -120.673873 211 1014ft 87kts
04-Feb-18 12:59 35.218883 -120.662703 124 1195ft 72kts
04-Feb-18 13:00 35.207826 -120.643121 126 1205ft 71kts
04-Feb-18 13:01 35.207112 -120.624251 29 1027ft 70kts
04-Feb-18 13:02 35.223263 -120.617328 330 768ft 65kts
04-Feb-18 13:03 35.233531 -120.634133 305 226ft 53kts
04-Feb-18 13:04 35.235387 -120.636067 55 215ft 0kts
04-Feb-18 13:05 35.237032 -120.638284 302 215ft 17kts
04-Feb-18 13:06 35.237810 -120.638107 273 215ft 0kts
04-Feb-18 13:07 35.237810 -120.638107 273 215ft 0kts
04-Feb-18 13:08 35.237810 -120.638107 273 215ft 0kts

Navigation Log

Ident Type
1. KSBP Airport
2. KSBP Airport